createdAt,value
2023-02-25T00:00:19.660Z,21.50
2023-02-25T00:03:22.889Z,21.60
2023-02-25T00:06:08.135Z,21.40
2023-02-25T00:08:55.079Z,22.20
2023-02-25T00:11:39.017Z,23.00
2023-02-25T00:14:22.181Z,22.30
2023-02-25T00:17:05.407Z,22.40
2023-02-25T00:19:48.391Z,22.60
2023-02-25T00:22:32.111Z,20.40
2023-02-25T00:25:18.810Z,25.30
2023-02-25T00:28:06.265Z,24.00
2023-02-25T00:30:49.587Z,26.30
2023-02-25T00:33:32.635Z,23.70
2023-02-25T00:36:23.810Z,26.90
2023-02-25T00:39:07.477Z,28.10
2023-02-25T00:41:51.148Z,28.50
2023-02-25T00:44:34.578Z,29.00
2023-02-25T00:47:19.701Z,25.90
2023-02-25T00:50:03.813Z,31.00
2023-02-25T00:52:46.792Z,26.70
2023-02-25T00:55:33.333Z,31.30
2023-02-25T00:58:16.381Z,30.80
2023-02-25T01:01:00.410Z,28.30
2023-02-25T01:03:43.336Z,28.20
2023-02-25T01:06:28.337Z,30.20
2023-02-25T01:09:14.677Z,30.80
2023-02-25T01:11:57.576Z,27.70
2023-02-25T01:14:40.547Z,25.90
2023-02-25T01:17:23.791Z,28.10
2023-02-25T01:20:11.525Z,30.70
2023-02-25T01:22:54.504Z,30.70
2023-02-25T01:25:42.171Z,30.90
2023-02-25T01:28:25.074Z,28.40
2023-02-25T01:31:17.021Z,29.70
2023-02-25T01:34:03.394Z,28.10
2023-02-25T01:36:47.736Z,29.00
2023-02-25T01:39:32.503Z,30.40
2023-02-25T01:42:17.227Z,29.10
2023-02-25T01:45:22.272Z,33.60
2023-02-25T01:48:12.391Z,30.60
2023-02-25T01:51:03.711Z,29.20
2023-02-25T01:53:48.314Z,34.50
2023-02-25T01:56:31.991Z,29.90
2023-02-25T01:59:16.299Z,29.00
2023-02-25T02:01:59.795Z,29.10
2023-02-25T02:04:44.987Z,30.30
2023-02-25T02:07:27.870Z,28.40
2023-02-25T02:10:12.363Z,24.80
2023-02-25T02:12:55.490Z,25.40
2023-02-25T02:15:44.968Z,25.60
2023-02-25T02:18:32.061Z,28.30
2023-02-25T02:21:40.256Z,26.60
2023-02-25T02:24:41.889Z,26.70
2023-02-25T02:28:15.376Z,29.40
2023-02-25T02:31:17.228Z,26.20
2023-02-25T02:34:22.055Z,28.00
2023-02-25T02:37:28.882Z,27.40
2023-02-25T02:40:34.411Z,26.20
2023-02-25T02:43:33.427Z,28.60
2023-02-25T02:46:36.209Z,26.90
2023-02-25T02:49:34.519Z,26.70
2023-02-25T02:52:24.239Z,27.60
2023-02-25T02:55:34.644Z,26.90
2023-02-25T02:58:20.212Z,26.30
2023-02-25T03:01:09.326Z,28.60
2023-02-25T03:04:00.094Z,28.50
2023-02-25T03:06:52.182Z,31.20
2023-02-25T03:09:51.780Z,28.30
2023-02-25T03:12:34.795Z,25.60
2023-02-25T03:15:18.123Z,23.70
2023-02-25T03:18:08.236Z,25.90
2023-02-25T03:20:54.513Z,25.50
2023-02-25T03:23:41.940Z,26.70
2023-02-25T03:26:32.347Z,24.90
2023-02-25T03:29:22.207Z,27.20
2023-02-25T03:32:12.943Z,26.90
2023-02-25T03:34:57.421Z,25.10
2023-02-25T03:37:44.332Z,23.40
2023-02-25T03:40:29.012Z,24.70
2023-02-25T03:43:17.727Z,26.00
2023-02-25T03:46:04.110Z,30.90
2023-02-25T03:48:48.671Z,25.30
2023-02-25T03:51:36.560Z,23.90
2023-02-25T03:54:19.927Z,23.40
2023-02-25T03:57:03.583Z,26.60
2023-02-25T03:59:46.521Z,24.50
2023-02-25T04:02:33.741Z,23.60
2023-02-25T04:05:19.773Z,27.20
2023-02-25T04:08:03.032Z,26.90
2023-02-25T04:10:49.455Z,27.70
2023-02-25T04:13:33.669Z,23.20
2023-02-25T04:16:16.675Z,26.80
2023-02-25T04:19:00.125Z,29.80
2023-02-25T04:21:43.066Z,24.10
2023-02-25T04:24:27.674Z,27.10
2023-02-25T04:27:11.335Z,26.60
2023-02-25T04:29:54.247Z,22.40
2023-02-25T04:32:37.460Z,23.60
2023-02-25T04:35:20.398Z,22.80
2023-02-25T04:38:03.614Z,22.10
2023-02-25T04:40:46.487Z,22.50
2023-02-25T04:43:29.560Z,24.80
2023-02-25T04:46:13.950Z,17.80
2023-02-25T04:48:56.978Z,19.40
2023-02-25T04:51:40.015Z,20.60
2023-02-25T04:54:22.908Z,16.70
2023-02-25T04:57:06.719Z,16.40
2023-02-25T04:59:49.546Z,15.40
2023-02-25T05:07:59.017Z,15.50
2023-02-25T05:13:24.784Z,13.00
2023-02-25T05:16:13.721Z,15.20
2023-02-25T05:18:56.723Z,14.70
2023-02-25T05:21:39.649Z,14.30
2023-02-25T05:24:23.743Z,17.00
2023-02-25T05:27:09.239Z,15.60
2023-02-25T05:29:52.123Z,14.30
2023-02-25T05:32:35.310Z,12.80
2023-02-25T05:35:18.903Z,14.70
2023-02-25T05:38:02.105Z,11.20
2023-02-25T05:40:44.972Z,12.30
2023-02-25T05:46:13.348Z,8.80
2023-02-25T05:48:56.353Z,10.30
2023-02-25T05:51:39.293Z,12.20
2023-02-25T05:54:22.305Z,10.90
2023-02-25T05:57:05.786Z,10.90
2023-02-25T05:59:48.650Z,14.20
2023-02-25T06:02:33.784Z,12.60
2023-02-25T06:05:17.625Z,13.40
2023-02-25T06:08:00.609Z,11.10
2023-02-25T06:10:43.411Z,10.70
2023-02-25T06:16:09.712Z,7.60
2023-02-25T06:18:52.854Z,9.50
2023-02-25T06:21:36.386Z,11.00
2023-02-25T06:24:19.265Z,12.90
2023-02-25T06:27:02.167Z,10.80
2023-02-25T06:32:30.975Z,10.30
2023-02-25T06:35:14.804Z,12.10
2023-02-25T06:37:59.990Z,10.50
2023-02-25T06:40:42.824Z,12.00
2023-02-25T06:46:11.604Z,7.10
2023-02-25T06:48:54.854Z,7.20
2023-02-25T06:51:38.327Z,7.40
2023-02-25T06:54:21.140Z,8.90
2023-02-25T06:59:47.601Z,5.90
2023-02-25T07:02:30.528Z,6.60
2023-02-25T07:07:57.268Z,5.30
2023-02-25T07:10:42.624Z,4.10
2023-02-25T07:13:25.792Z,4.40
2023-02-25T07:16:09.077Z,3.90
2023-02-25T07:18:52.077Z,3.30
2023-02-25T07:21:34.929Z,3.50
2023-02-25T07:24:17.841Z,4.20
2023-02-25T07:27:00.728Z,5.00
2023-02-25T07:32:26.648Z,6.20
2023-02-25T07:35:10.702Z,4.70
2023-02-25T07:37:53.604Z,5.20
2023-02-25T07:40:37.066Z,4.70
2023-02-25T07:43:21.499Z,4.60
2023-02-25T07:46:04.983Z,3.80
2023-02-25T07:48:49.064Z,5.60
2023-02-25T07:51:32.522Z,3.40
2023-02-25T07:54:16.064Z,5.60
2023-02-25T07:56:59.037Z,3.40
2023-02-25T07:59:41.967Z,4.70
2023-02-25T08:02:26.062Z,4.50
2023-02-25T08:05:09.585Z,5.90
2023-02-25T08:07:53.180Z,4.30
2023-02-25T08:10:37.535Z,6.90
2023-02-25T08:13:20.947Z,9.10
2023-02-25T08:16:13.727Z,7.80
2023-02-25T08:18:57.037Z,7.20
2023-02-25T08:21:40.684Z,7.10
2023-02-25T08:24:23.938Z,8.50
2023-02-25T08:27:11.164Z,10.00
2023-02-25T08:29:54.426Z,10.50
2023-02-25T08:32:38.273Z,7.60
2023-02-25T08:35:21.850Z,7.70
2023-02-25T08:38:05.786Z,11.40
2023-02-25T08:40:51.859Z,8.80
2023-02-25T08:43:36.322Z,8.90
2023-02-25T08:46:21.103Z,11.50
2023-02-25T08:49:05.218Z,12.30
2023-02-25T08:51:51.078Z,7.90
2023-02-25T08:54:34.118Z,10.20
2023-02-25T08:57:17.422Z,7.90
2023-02-25T09:00:00.580Z,7.90
2023-02-25T09:02:45.097Z,6.90
2023-02-25T09:05:28.385Z,9.70
2023-02-25T09:08:11.493Z,7.00
2023-02-25T09:10:54.596Z,7.90
2023-02-25T09:13:37.990Z,7.00
2023-02-25T09:16:21.372Z,6.90
2023-02-25T09:19:04.658Z,7.80
2023-02-25T09:21:51.070Z,7.80
2023-02-25T09:24:35.112Z,9.30
2023-02-25T09:27:18.385Z,9.20
2023-02-25T09:30:01.453Z,8.60
2023-02-25T09:32:45.659Z,8.50
2023-02-25T09:35:29.026Z,8.90
2023-02-25T09:38:13.242Z,10.70
2023-02-25T09:40:56.556Z,8.60
2023-02-25T09:43:42.640Z,6.50
2023-02-25T09:46:29.326Z,10.50
2023-02-25T09:49:22.178Z,9.00
2023-02-25T09:55:06.280Z,9.10
2023-02-25T09:58:20.583Z,8.70
2023-02-25T10:01:13.841Z,5.40
2023-02-25T10:04:11.983Z,6.30
2023-02-25T10:06:56.346Z,5.70
2023-02-25T10:09:39.350Z,9.80
2023-02-25T10:13:00.350Z,7.10
2023-02-25T10:16:08.114Z,5.40
2023-02-25T10:19:11.278Z,7.50
2023-02-25T10:24:48.387Z,5.80
2023-02-25T10:27:37.852Z,6.20
2023-02-25T10:30:27.158Z,5.40
2023-02-25T10:33:34.919Z,5.30
2023-02-25T10:36:43.885Z,6.40
2023-02-25T10:39:28.684Z,6.00
2023-02-25T10:42:12.362Z,6.30
2023-02-25T10:45:01.048Z,6.30
2023-02-25T10:47:50.631Z,7.10
2023-02-25T10:50:44.903Z,5.20
2023-02-25T10:53:29.213Z,6.10
2023-02-25T10:56:12.325Z,5.30
2023-02-25T10:59:07.842Z,7.80
2023-02-25T11:01:52.380Z,6.80
2023-02-25T11:04:39.533Z,4.70
2023-02-25T11:07:41.396Z,4.50
2023-02-25T11:10:25.279Z,5.30
2023-02-25T11:13:28.781Z,6.30
2023-02-25T11:16:14.600Z,3.90
2023-02-25T11:19:01.193Z,3.40
2023-02-25T11:21:47.152Z,5.50
2023-02-25T11:24:34.910Z,5.00
2023-02-25T11:27:37.901Z,3.90
2023-02-25T11:30:30.725Z,3.00
2023-02-25T11:33:33.840Z,5.00
2023-02-25T11:36:23.693Z,4.10
2023-02-25T11:39:22.804Z,2.20
2023-02-25T11:42:27.219Z,4.70
2023-02-25T11:45:17.184Z,2.10
2023-02-25T11:48:02.984Z,2.80
2023-02-25T11:50:53.994Z,2.50
2023-02-25T11:54:01.393Z,2.90
2023-02-25T11:56:50.487Z,2.50
2023-02-25T11:59:58.376Z,1.60
2023-02-25T12:02:51.533Z,2.20
2023-02-25T12:06:18.432Z,2.30
2023-02-25T12:09:32.055Z,0.90
2023-02-25T12:12:19.096Z,1.70
2023-02-25T12:15:28.821Z,4.40
2023-02-25T12:18:33.540Z,3.00
2023-02-25T12:21:35.120Z,1.80
2023-02-25T12:24:55.619Z,1.90
2023-02-25T12:28:00.594Z,3.00
2023-02-25T12:30:50.688Z,4.70
2023-02-25T12:34:04.637Z,2.90
2023-02-25T12:37:13.896Z,3.90
2023-02-25T12:40:35.894Z,2.70
2023-02-25T12:43:18.859Z,3.60
2023-02-25T12:46:15.263Z,4.70
2023-02-25T12:49:46.287Z,4.60
2023-02-25T12:52:38.054Z,4.40
2023-02-25T12:55:42.129Z,1.20
2023-02-25T12:58:47.846Z,1.60
2023-02-25T13:02:12.442Z,3.00
2023-02-25T13:05:10.779Z,3.30
2023-02-25T13:08:28.809Z,3.80
2023-02-25T13:11:38.001Z,3.20
2023-02-25T13:14:55.322Z,2.30
2023-02-25T13:17:56.770Z,2.10
2023-02-25T13:20:42.764Z,6.60
2023-02-25T13:23:36.023Z,2.60
2023-02-25T13:26:44.878Z,1.80
2023-02-25T13:29:27.839Z,4.90
2023-02-25T13:32:36.718Z,3.40
2023-02-25T13:35:23.115Z,4.40
2023-02-25T13:38:16.118Z,4.30
2023-02-25T13:44:26.044Z,3.70
2023-02-25T13:47:18.035Z,6.20
2023-02-25T13:50:27.291Z,5.70
2023-02-25T13:53:35.093Z,3.30
2023-02-25T13:56:49.573Z,3.40
2023-02-25T13:59:47.835Z,4.80
2023-02-25T14:02:56.055Z,3.10
2023-02-25T14:06:03.975Z,3.00
2023-02-25T14:08:56.023Z,3.50
2023-02-25T14:12:12.088Z,2.50
2023-02-25T14:15:02.681Z,4.50
2023-02-25T14:17:57.799Z,4.90
2023-02-25T14:20:55.627Z,4.30
2023-02-25T14:23:59.813Z,5.50
2023-02-25T14:27:02.778Z,4.70
2023-02-25T14:30:24.569Z,4.70
2023-02-25T14:33:19.952Z,4.30
2023-02-25T14:36:26.762Z,4.00
2023-02-25T14:39:31.800Z,4.70
2023-02-25T14:42:14.816Z,17.60
2023-02-25T14:45:22.151Z,17.50
2023-02-25T14:48:15.288Z,7.20
2023-02-25T14:51:30.272Z,4.50
2023-02-25T14:55:00.131Z,5.80
2023-02-25T14:58:07.724Z,3.00
2023-02-25T15:01:15.434Z,3.10
2023-02-25T15:04:18.795Z,5.00
2023-02-25T15:10:12.750Z,5.70
2023-02-25T15:12:55.744Z,3.90
2023-02-25T15:15:38.933Z,3.70
2023-02-25T15:18:33.888Z,4.80
2023-02-25T15:21:37.752Z,2.30
2023-02-25T15:24:23.508Z,4.50
2023-02-25T15:27:31.614Z,3.50
2023-02-25T15:30:23.768Z,3.30
2023-02-25T15:33:23.283Z,5.10
2023-02-25T15:36:15.388Z,3.80
2023-02-25T15:38:58.606Z,6.20
2023-02-25T15:41:44.829Z,5.20
2023-02-25T15:44:33.740Z,6.40
2023-02-25T15:47:34.528Z,4.20
2023-02-25T15:50:43.712Z,4.90
2023-02-25T15:53:26.672Z,3.20
2023-02-25T15:56:12.759Z,4.40
2023-02-25T15:58:58.777Z,5.00
2023-02-25T16:01:43.368Z,3.70
2023-02-25T16:04:48.908Z,8.00
2023-02-25T16:07:39.211Z,5.30
2023-02-25T16:10:30.565Z,6.70
2023-02-25T16:13:30.339Z,5.10
2023-02-25T16:16:16.617Z,4.90
2023-02-25T16:19:01.656Z,5.60
2023-02-25T16:21:48.384Z,8.50
2023-02-25T16:24:32.282Z,9.20
2023-02-25T16:27:33.475Z,9.20
2023-02-25T16:30:24.582Z,5.10
2023-02-25T16:33:38.212Z,8.00
2023-02-25T16:36:21.396Z,8.10
2023-02-25T16:39:20.092Z,11.30
2023-02-25T16:42:05.711Z,9.70
2023-02-25T16:44:59.801Z,12.70
2023-02-25T16:47:43.298Z,8.10
2023-02-25T16:50:27.780Z,9.20
2023-02-25T16:53:22.805Z,13.50
2023-02-25T16:56:06.652Z,14.70
2023-02-25T16:59:14.010Z,9.80
2023-02-25T17:02:19.451Z,8.00
2023-02-25T17:05:02.388Z,9.80
2023-02-25T17:07:45.442Z,7.20
2023-02-25T17:10:33.741Z,7.10
2023-02-25T17:13:24.547Z,8.70
2023-02-25T17:16:17.050Z,12.50
2023-02-25T17:19:06.926Z,6.00
2023-02-25T17:21:59.996Z,14.10
2023-02-25T17:24:43.279Z,6.60
2023-02-25T17:27:28.468Z,8.40
2023-02-25T17:30:36.526Z,7.70
2023-02-25T17:33:28.463Z,8.90
2023-02-25T17:36:16.869Z,10.30
2023-02-25T17:39:12.063Z,13.80
2023-02-25T17:41:55.081Z,13.20
2023-02-25T17:44:47.540Z,9.10
2023-02-25T17:47:33.516Z,6.80
2023-02-25T17:50:42.814Z,9.80
2023-02-25T17:53:40.922Z,14.80
2023-02-25T17:56:29.453Z,10.70
2023-02-25T17:59:12.392Z,13.40
2023-02-25T18:01:58.790Z,12.70
2023-02-25T18:04:42.598Z,10.50
2023-02-25T18:07:32.572Z,15.90
2023-02-25T18:10:33.811Z,8.60
2023-02-25T18:13:40.265Z,10.70
2023-02-25T18:16:32.491Z,8.40
2023-02-25T18:19:27.752Z,17.50
2023-02-25T18:22:27.425Z,7.80
2023-02-25T18:25:31.978Z,8.00
2023-02-25T18:28:24.290Z,13.50
2023-02-25T18:31:08.380Z,15.40
2023-02-25T18:33:52.360Z,11.20
2023-02-25T18:36:35.385Z,13.00
2023-02-25T18:39:20.188Z,12.80
2023-02-25T18:42:03.144Z,11.70
2023-02-25T18:44:47.292Z,10.10
2023-02-25T18:47:30.305Z,12.10
2023-02-25T18:50:14.628Z,13.10
2023-02-25T18:52:58.752Z,15.30
2023-02-25T18:55:41.765Z,12.80
2023-02-25T18:58:25.899Z,14.80
2023-02-25T19:01:20.871Z,9.00
2023-02-25T19:04:04.182Z,11.70
2023-02-25T19:06:47.620Z,10.90
2023-02-25T19:09:30.554Z,7.30
2023-02-25T19:12:15.064Z,12.10
2023-02-25T19:15:08.035Z,12.90
2023-02-25T19:17:51.393Z,10.60
2023-02-25T19:20:34.285Z,6.60
2023-02-25T19:23:18.722Z,10.90
2023-02-25T19:26:02.638Z,18.50
2023-02-25T19:28:45.698Z,21.70
2023-02-25T19:31:28.766Z,9.70
2023-02-25T19:34:12.036Z,10.40
2023-02-25T19:36:55.227Z,10.90
2023-02-25T19:39:38.550Z,9.80
2023-02-25T19:42:21.587Z,12.70
2023-02-25T19:45:06.362Z,16.10
2023-02-25T19:47:50.595Z,10.90
2023-02-25T19:50:35.116Z,14.00
2023-02-25T19:53:18.170Z,15.80
2023-02-25T19:56:03.095Z,13.60
2023-02-25T19:58:46.038Z,16.80
2023-02-25T20:01:28.967Z,15.80
2023-02-25T20:04:11.868Z,12.70
2023-02-25T20:06:54.802Z,14.80
2023-02-25T20:09:37.965Z,14.30
2023-02-25T20:12:21.024Z,9.10
2023-02-25T20:15:05.848Z,10.90
2023-02-25T20:17:49.418Z,9.00
2023-02-25T20:20:32.797Z,10.50
2023-02-25T20:23:15.738Z,10.90
2023-02-25T20:26:10.702Z,11.60
2023-02-25T20:28:54.503Z,10.60
2023-02-25T20:31:37.531Z,14.30
2023-02-25T20:34:22.652Z,10.60
2023-02-25T20:37:20.379Z,13.10
2023-02-25T20:40:08.177Z,10.10
2023-02-25T20:42:51.319Z,9.80
2023-02-25T20:45:34.934Z,13.70
2023-02-25T20:48:30.905Z,10.40
2023-02-25T20:51:14.292Z,9.50
2023-02-25T20:53:57.673Z,16.40
2023-02-25T20:56:41.676Z,12.90
2023-02-25T20:59:24.629Z,10.30
2023-02-25T21:02:08.304Z,13.00
2023-02-25T21:04:52.103Z,8.80
2023-02-25T21:07:35.222Z,9.60
2023-02-25T21:10:18.600Z,10.20
2023-02-25T21:13:01.537Z,10.60
2023-02-25T21:15:44.460Z,11.50
2023-02-25T21:18:28.193Z,11.70
2023-02-25T21:21:16.314Z,12.30
2023-02-25T21:23:59.395Z,13.00
2023-02-25T21:26:43.329Z,13.50
2023-02-25T21:29:26.524Z,13.90
2023-02-25T21:32:09.474Z,10.70
2023-02-25T21:34:52.527Z,10.00
2023-02-25T21:37:35.457Z,8.50
2023-02-25T21:40:18.824Z,10.50
2023-02-25T21:43:02.032Z,9.50
2023-02-25T21:45:56.065Z,7.10
2023-02-25T21:48:40.619Z,10.40
2023-02-25T21:51:26.584Z,11.70
2023-02-25T21:54:09.900Z,12.80
2023-02-25T21:56:52.945Z,11.30
2023-02-25T21:59:35.877Z,11.40
2023-02-25T22:02:19.253Z,11.20
2023-02-25T22:05:02.361Z,10.00
2023-02-25T22:07:45.372Z,10.80
2023-02-25T22:10:28.246Z,10.40
2023-02-25T22:13:11.147Z,10.00
2023-02-25T22:15:54.016Z,8.80
2023-02-25T22:18:37.306Z,4.20
2023-02-25T22:21:29.836Z,9.80
2023-02-25T22:24:13.011Z,7.60
2023-02-25T22:26:56.149Z,7.80
2023-02-25T22:29:39.264Z,12.50
2023-02-25T22:32:22.860Z,6.50
2023-02-25T22:35:07.749Z,9.40
2023-02-25T22:37:50.670Z,12.20
2023-02-25T22:40:33.603Z,8.30
2023-02-25T22:46:20.149Z,8.40
2023-02-25T22:49:04.920Z,8.10
2023-02-25T22:51:48.551Z,8.30
2023-02-25T22:54:31.667Z,9.00
2023-02-25T22:57:14.597Z,12.30
2023-02-25T22:59:57.523Z,8.60
2023-02-25T23:02:40.462Z,16.60
2023-02-25T23:05:23.532Z,21.30
2023-02-25T23:08:06.653Z,11.30
2023-02-25T23:10:49.672Z,14.00
2023-02-25T23:13:32.789Z,13.20
2023-02-25T23:16:24.500Z,10.60
2023-02-25T23:19:10.076Z,11.80
2023-02-25T23:21:53.288Z,15.10
2023-02-25T23:24:36.317Z,8.40
2023-02-25T23:27:19.738Z,14.90
2023-02-25T23:30:04.532Z,14.60
2023-02-25T23:32:47.952Z,10.50
2023-02-25T23:35:30.852Z,9.00
2023-02-25T23:38:13.751Z,7.60
2023-02-25T23:43:42.655Z,6.30
2023-02-25T23:46:28.213Z,5.50
2023-02-25T23:49:13.191Z,7.50
2023-02-25T23:51:56.220Z,6.70
2023-02-25T23:54:39.233Z,10.10
2023-02-25T23:57:22.352Z,6.30
